Terminal Aerodrome Forecast
Issued by NWS Wakefield, VA

Home | Current Version | Previous Version | Text Only | Print | Product List | Glossary On
Versions: 1 2 3 4 5 6 7 8 9 10 11 12 13 14 15 16
000
FTUS41 KAKQ 012000 AAA
TAFORF
TAF AMD
KORF 012009Z 0120/0218 02010KT P6SM SCT015
     FM012200 04005KT P6SM SCT025
     FM021000 VRB03KT 4SM BR BKN007=

USA.gov is the U.S. government's official web portal to all federal, state and local government web resources and services.